createdAt,value
2022-08-05T00:00:17.368Z,18.90
2022-08-05T00:02:50.914Z,18.90
2022-08-05T00:08:32.816Z,19.00
2022-08-05T00:11:00.837Z,18.90
2022-08-05T00:13:39.024Z,18.90
2022-08-05T00:16:12.243Z,18.90
2022-08-05T00:18:45.296Z,18.90
2022-08-05T00:21:14.719Z,18.90
2022-08-05T00:23:45.901Z,18.90
2022-08-05T00:26:16.658Z,18.90
2022-08-05T00:28:45.855Z,18.90
2022-08-05T00:31:14.837Z,18.90
2022-08-05T00:34:53.259Z,18.90
2022-08-05T00:37:08.935Z,18.90
2022-08-05T00:39:21.345Z,18.90
2022-08-05T00:41:55.593Z,18.90
2022-08-05T00:44:30.682Z,18.90
2022-08-05T00:47:02.171Z,19.00
2022-08-05T00:49:51.280Z,18.90
2022-08-05T00:52:28.098Z,18.90
2022-08-05T00:54:57.031Z,19.00
2022-08-05T00:57:38.139Z,19.00
2022-08-05T01:00:17.042Z,19.00
2022-08-05T01:02:48.002Z,19.00
2022-08-05T01:05:19.684Z,18.90
2022-08-05T01:08:30.266Z,18.90
2022-08-05T01:10:40.964Z,18.90
2022-08-05T01:13:59.062Z,18.80
2022-08-05T01:16:26.464Z,18.70
2022-08-05T01:19:00.858Z,18.70
2022-08-05T01:21:58.362Z,18.60
2022-08-05T01:24:42.757Z,18.60
2022-08-05T01:27:27.466Z,18.60
2022-08-05T01:30:04.994Z,18.60
2022-08-05T01:32:45.425Z,18.50
2022-08-05T01:35:51.620Z,18.50
2022-08-05T01:38:08.029Z,18.50
2022-08-05T01:40:54.624Z,18.40
2022-08-05T01:43:25.445Z,18.30
2022-08-05T01:45:57.137Z,18.30
2022-08-05T01:48:27.138Z,18.20
2022-08-05T01:50:57.752Z,18.10
2022-08-05T01:53:57.700Z,18.10
2022-08-05T01:58:11.440Z,18.00
2022-08-05T01:59:11.204Z,18.00
2022-08-05T02:01:41.543Z,17.90
2022-08-05T02:04:10.691Z,17.90
2022-08-05T02:06:39.673Z,17.80
2022-08-05T02:09:08.743Z,17.80
2022-08-05T02:11:48.160Z,17.70
2022-08-05T02:14:26.817Z,17.70
2022-08-05T02:17:03.162Z,17.60
2022-08-05T02:19:35.501Z,17.50
2022-08-05T02:22:10.081Z,17.50
2022-08-05T02:25:00.089Z,17.50
2022-08-05T02:27:29.741Z,17.40
2022-08-05T02:30:18.728Z,17.30
2022-08-05T02:32:52.294Z,17.30
2022-08-05T02:35:28.198Z,17.20
2022-08-05T02:38:02.175Z,17.10
2022-08-05T02:40:32.598Z,17.10
2022-08-05T02:43:03.406Z,17.00
2022-08-05T02:45:52.471Z,16.90
2022-08-05T02:48:29.022Z,16.80
2022-08-05T02:51:01.036Z,16.80
2022-08-05T02:53:35.899Z,16.70
2022-08-05T02:56:16.065Z,16.70
2022-08-05T02:58:51.197Z,16.60
2022-08-05T03:01:40.390Z,16.60
2022-08-05T03:04:14.473Z,16.60
2022-08-05T03:06:55.813Z,16.50
2022-08-05T03:09:37.733Z,16.50
2022-08-05T03:12:08.283Z,16.50
2022-08-05T03:14:46.001Z,16.40
2022-08-05T03:17:14.765Z,16.40
2022-08-05T03:19:45.645Z,16.40
2022-08-05T03:22:16.300Z,16.40
2022-08-05T03:24:51.114Z,16.40
2022-08-05T03:27:22.002Z,16.50
2022-08-05T03:30:07.569Z,16.60
2022-08-05T03:32:37.643Z,16.60
2022-08-05T03:35:08.948Z,16.70
2022-08-05T03:37:41.015Z,16.80
2022-08-05T03:40:24.434Z,16.80
2022-08-05T03:43:15.697Z,16.90
2022-08-05T03:45:57.861Z,17.00
2022-08-05T03:48:28.971Z,17.00
2022-08-05T03:52:37.323Z,17.10
2022-08-05T03:55:52.848Z,17.10
2022-08-05T03:56:50.107Z,17.20
2022-08-05T03:59:24.772Z,17.20
2022-08-05T04:01:54.549Z,17.20
2022-08-05T04:04:28.252Z,17.20
2022-08-05T04:06:59.021Z,17.30
2022-08-05T04:09:28.961Z,17.30
2022-08-05T04:11:57.634Z,17.30
2022-08-05T04:14:30.296Z,17.30
2022-08-05T04:17:03.077Z,17.40
2022-08-05T04:19:31.570Z,17.40
2022-08-05T04:22:09.221Z,17.50
2022-08-05T04:24:44.350Z,17.60
2022-08-05T04:27:15.339Z,17.60
2022-08-05T04:29:43.789Z,17.70
2022-08-05T04:32:12.154Z,17.80
2022-08-05T04:34:42.855Z,17.90
2022-08-05T04:37:12.937Z,17.90
2022-08-05T04:39:41.141Z,18.00
2022-08-05T04:42:10.342Z,18.00
2022-08-05T04:44:39.187Z,18.10
2022-08-05T04:47:09.889Z,18.10
2022-08-05T04:50:02.917Z,18.00
2022-08-05T04:52:33.283Z,18.10
2022-08-05T04:55:14.918Z,18.10
2022-08-05T04:57:47.583Z,18.10
2022-08-05T05:00:17.223Z,18.10
2022-08-05T05:02:45.311Z,18.10
2022-08-05T05:05:25.995Z,18.10
2022-08-05T05:08:01.728Z,18.10
2022-08-05T05:10:33.524Z,18.10
2022-08-05T05:13:04.273Z,18.10
2022-08-05T05:15:57.927Z,18.20
2022-08-05T05:18:31.242Z,18.10
2022-08-05T05:21:02.336Z,18.10
2022-08-05T05:24:02.189Z,18.20
2022-08-05T05:26:28.628Z,18.20
2022-08-05T05:29:02.353Z,18.30
2022-08-05T05:34:02.053Z,18.40
2022-08-05T05:36:31.944Z,18.40
2022-08-05T05:39:03.761Z,18.60
2022-08-05T05:41:40.931Z,18.70
2022-08-05T05:44:35.995Z,19.10
2022-08-05T05:47:04.190Z,19.50
2022-08-05T05:52:09.026Z,20.40
2022-08-05T05:54:50.219Z,20.70
2022-08-05T05:57:19.954Z,20.80
2022-08-05T05:59:48.866Z,20.70
2022-08-05T06:02:32.575Z,20.60
2022-08-05T06:05:13.945Z,20.40
2022-08-05T06:07:57.901Z,20.20
2022-08-05T06:10:36.277Z,20.00
2022-08-05T06:13:05.282Z,19.90
2022-08-05T06:16:28.359Z,19.80
2022-08-05T06:18:31.543Z,19.70
2022-08-05T06:21:00.612Z,19.60
2022-08-05T06:23:43.525Z,19.60
2022-08-05T06:26:20.957Z,19.50
2022-08-05T06:28:50.597Z,19.50
2022-08-05T06:31:22.020Z,19.40
2022-08-05T06:34:07.752Z,19.40
2022-08-05T06:36:56.937Z,19.30
2022-08-05T06:39:27.048Z,19.30
2022-08-05T06:41:57.510Z,19.30
2022-08-05T06:44:28.034Z,19.30
2022-08-05T06:46:56.250Z,19.20
2022-08-05T06:50:00.138Z,19.20
2022-08-05T06:52:37.926Z,19.20
2022-08-05T06:55:02.519Z,19.30
2022-08-05T06:58:02.610Z,19.40
2022-08-05T07:00:24.517Z,19.40
2022-08-05T07:02:54.430Z,19.40
2022-08-05T07:05:37.231Z,19.40
2022-08-05T07:08:10.683Z,19.40
2022-08-05T07:10:53.023Z,19.40
2022-08-05T07:13:57.550Z,19.40
2022-08-05T07:17:58.678Z,19.40
2022-08-05T07:22:28.115Z,19.40
2022-08-05T07:25:22.921Z,19.40
2022-08-05T07:27:58.558Z,19.40
2022-08-05T07:30:34.304Z,19.30
2022-08-05T07:33:05.486Z,19.30
2022-08-05T07:36:04.000Z,19.40
2022-08-05T07:38:33.641Z,19.40
2022-08-05T07:41:35.124Z,19.50
2022-08-05T07:43:56.163Z,19.60
2022-08-05T07:46:27.590Z,19.60
2022-08-05T07:49:02.408Z,19.70
2022-08-05T07:51:37.420Z,19.70
2022-08-05T07:54:10.502Z,19.80
2022-08-05T07:57:01.385Z,19.80
2022-08-05T07:59:31.365Z,19.80
2022-08-05T08:02:16.632Z,19.70
2022-08-05T08:04:46.543Z,19.70
2022-08-05T08:07:17.888Z,19.70
2022-08-05T08:09:52.915Z,19.70
2022-08-05T08:12:36.849Z,19.60
2022-08-05T08:15:15.107Z,19.60
2022-08-05T08:17:52.653Z,19.60
2022-08-05T08:21:00.069Z,19.50
2022-08-05T08:24:00.367Z,19.50
2022-08-05T08:26:00.654Z,19.50
2022-08-05T08:28:37.166Z,19.50
2022-08-05T08:31:14.970Z,19.50
2022-08-05T08:33:51.604Z,19.50
2022-08-05T08:36:39.009Z,19.50
2022-08-05T08:39:14.951Z,19.40
2022-08-05T08:41:52.563Z,19.30
2022-08-05T08:45:24.058Z,19.30
2022-08-05T08:48:05.676Z,19.30
2022-08-05T08:50:30.673Z,19.20
2022-08-05T08:53:08.058Z,19.20
2022-08-05T08:56:02.774Z,19.20
2022-08-05T08:58:43.097Z,19.20
2022-08-05T09:01:15.776Z,19.20
2022-08-05T09:03:47.603Z,19.20
2022-08-05T09:06:21.265Z,19.20
2022-08-05T09:08:52.514Z,19.10
2022-08-05T09:11:51.415Z,19.00
2022-08-05T09:14:56.617Z,18.90
2022-08-05T09:16:57.887Z,18.80
2022-08-05T09:19:27.832Z,18.70
2022-08-05T09:22:21.890Z,18.70
2022-08-05T09:24:59.139Z,18.70
2022-08-05T09:28:04.212Z,18.70
2022-08-05T09:30:23.248Z,18.70
2022-08-05T09:32:52.767Z,18.70
2022-08-05T09:35:27.385Z,18.80
2022-08-05T09:38:17.572Z,18.90
2022-08-05T09:40:52.374Z,18.90
2022-08-05T09:43:41.138Z,19.00
2022-08-05T09:46:28.405Z,19.00
2022-08-05T09:49:08.214Z,19.00
2022-08-05T09:51:49.525Z,19.10
2022-08-05T09:54:32.078Z,19.20
2022-08-05T09:57:01.674Z,19.20
2022-08-05T09:59:35.055Z,19.20
2022-08-05T10:02:06.299Z,19.10
2022-08-05T10:04:41.379Z,19.00
2022-08-05T10:07:19.925Z,18.90
2022-08-05T10:10:13.926Z,18.90
2022-08-05T10:12:49.652Z,18.80
2022-08-05T10:15:27.146Z,18.80
2022-08-05T10:18:22.383Z,18.80
2022-08-05T10:20:54.056Z,18.80
2022-08-05T10:23:55.550Z,18.80
2022-08-05T10:26:14.868Z,18.80
2022-08-05T10:28:45.111Z,18.70
2022-08-05T10:32:53.120Z,18.60
2022-08-05T10:34:07.850Z,18.60
2022-08-05T10:36:37.350Z,18.70
2022-08-05T10:39:15.026Z,18.70
2022-08-05T10:42:01.510Z,18.70
2022-08-05T10:44:32.345Z,18.70
2022-08-05T10:47:26.061Z,18.70
2022-08-05T10:50:20.736Z,18.70
2022-08-05T10:52:58.714Z,18.80
2022-08-05T10:55:28.034Z,18.70
2022-08-05T10:58:17.891Z,18.60
2022-08-05T11:00:47.918Z,18.50
2022-08-05T11:03:24.750Z,18.60
2022-08-05T11:06:08.391Z,18.70
2022-08-05T11:09:16.695Z,18.80
2022-08-05T11:11:52.602Z,19.10
2022-08-05T11:15:11.937Z,19.40
2022-08-05T11:18:07.293Z,19.60
2022-08-05T11:20:43.645Z,19.70
2022-08-05T11:24:04.923Z,19.60
2022-08-05T11:26:28.886Z,19.50
2022-08-05T11:29:12.567Z,19.70
2022-08-05T11:31:58.616Z,20.20
2022-08-05T11:34:39.939Z,20.80
2022-08-05T11:38:30.623Z,21.30
2022-08-05T11:41:03.550Z,21.70
2022-08-05T11:44:05.962Z,22.00
2022-08-05T11:46:58.754Z,22.30
2022-08-05T11:49:28.883Z,22.60
2022-08-05T11:52:11.399Z,22.80
2022-08-05T11:54:41.763Z,23.10
2022-08-05T11:57:25.488Z,23.30
2022-08-05T11:59:54.645Z,23.60
2022-08-05T12:02:36.061Z,23.70
2022-08-05T12:05:18.037Z,23.90
2022-08-05T12:08:09.137Z,24.30
2022-08-05T12:10:45.800Z,24.90
2022-08-05T12:13:27.636Z,25.60
2022-08-05T12:16:15.049Z,26.10
2022-08-05T12:18:52.220Z,26.70
2022-08-05T12:21:26.682Z,26.90
2022-08-05T12:24:04.591Z,27.60
2022-08-05T12:26:35.377Z,28.00
2022-08-05T12:29:05.633Z,28.40
2022-08-05T12:31:42.366Z,28.90
2022-08-05T12:34:21.454Z,29.40
2022-08-05T12:36:55.527Z,29.80
2022-08-05T12:39:27.931Z,29.90
2022-08-05T12:42:04.254Z,30.50
2022-08-05T12:44:36.880Z,31.30
2022-08-05T12:47:12.520Z,31.70
2022-08-05T12:50:04.098Z,32.00
2022-08-05T12:52:38.673Z,32.10
2022-08-05T12:55:22.127Z,32.30
2022-08-05T12:58:50.460Z,32.00
2022-08-05T13:02:01.885Z,31.60
2022-08-05T13:03:39.029Z,30.90
2022-08-05T13:06:16.470Z,30.10
2022-08-05T13:08:52.333Z,29.50
2022-08-05T13:11:59.801Z,29.10
2022-08-05T13:14:24.680Z,29.00
2022-08-05T13:17:08.237Z,28.50
2022-08-05T13:19:51.091Z,28.50
2022-08-05T13:22:29.475Z,29.00
2022-08-05T13:25:05.540Z,29.80
2022-08-05T13:27:39.187Z,30.50
2022-08-05T13:30:35.105Z,30.10
2022-08-05T13:33:00.930Z,29.70
2022-08-05T13:35:42.704Z,29.20
2022-08-05T13:38:28.260Z,29.20
2022-08-05T13:41:04.125Z,30.30
2022-08-05T13:43:44.021Z,31.10
2022-08-05T13:46:43.750Z,31.40
2022-08-05T13:49:10.230Z,31.80
2022-08-05T13:51:46.590Z,31.40
2022-08-05T13:54:17.009Z,31.00
2022-08-05T13:56:50.819Z,30.70
2022-08-05T13:59:24.552Z,30.00
2022-08-05T14:01:58.146Z,29.50
2022-08-05T14:04:49.586Z,29.00
2022-08-05T14:07:56.240Z,28.40
2022-08-05T14:10:10.667Z,27.60
2022-08-05T14:12:42.980Z,26.90
2022-08-05T14:16:08.155Z,26.60
2022-08-05T14:18:06.266Z,26.70
2022-08-05T14:20:47.229Z,26.80
2022-08-05T14:23:24.792Z,26.70
2022-08-05T14:25:58.979Z,26.50
2022-08-05T14:28:29.332Z,26.30
2022-08-05T14:30:57.729Z,26.10
2022-08-05T14:33:25.876Z,25.80
2022-08-05T14:35:54.853Z,25.70
2022-08-05T14:38:31.906Z,25.70
2022-08-05T14:41:06.114Z,25.70
2022-08-05T14:43:59.993Z,25.80
2022-08-05T14:46:28.732Z,25.70
2022-08-05T14:49:03.383Z,25.60
2022-08-05T14:51:37.589Z,25.40
2022-08-05T14:54:27.638Z,25.20
2022-08-05T14:56:55.008Z,25.00
2022-08-05T14:59:24.768Z,24.70
2022-08-05T15:01:53.739Z,24.50
2022-08-05T15:04:22.836Z,24.20
2022-08-05T15:06:51.997Z,24.00
2022-08-05T15:09:51.099Z,23.70
2022-08-05T15:12:11.567Z,23.50
2022-08-05T15:14:48.231Z,23.30
2022-08-05T15:17:45.738Z,23.10
2022-08-05T15:20:18.618Z,22.90
2022-08-05T15:22:54.410Z,22.80
2022-08-05T15:25:40.833Z,22.70
2022-08-05T15:28:13.149Z,22.60
2022-08-05T15:30:45.496Z,22.40
2022-08-05T15:34:05.628Z,22.30
2022-08-05T15:36:03.910Z,22.20
2022-08-05T15:38:36.440Z,22.10
2022-08-05T15:41:22.985Z,22.00
2022-08-05T15:43:54.654Z,22.00
2022-08-05T15:46:25.210Z,21.80
2022-08-05T15:49:01.035Z,21.80
2022-08-05T15:52:13.812Z,21.70
2022-08-05T15:54:34.737Z,21.60
2022-08-05T15:57:07.617Z,21.50
2022-08-05T15:59:36.297Z,21.50
2022-08-05T16:02:09.612Z,21.40
2022-08-05T16:04:43.423Z,21.40
2022-08-05T16:07:12.206Z,21.30
2022-08-05T16:09:42.201Z,21.30
2022-08-05T16:12:31.749Z,21.20
2022-08-05T16:15:00.458Z,21.10
2022-08-05T16:17:30.165Z,21.10
2022-08-05T16:20:04.269Z,21.00
2022-08-05T16:22:40.768Z,21.00
2022-08-05T16:25:10.383Z,20.90
2022-08-05T16:28:01.039Z,20.80
2022-08-05T16:30:29.211Z,20.70
2022-08-05T16:32:59.424Z,20.70
2022-08-05T16:35:32.400Z,20.60
2022-08-05T16:38:18.560Z,20.50
2022-08-05T16:40:59.783Z,20.50
2022-08-05T16:43:32.080Z,20.40
2022-08-05T16:46:24.265Z,20.40
2022-08-05T16:48:55.568Z,20.30
2022-08-05T16:51:24.241Z,20.20
2022-08-05T16:54:04.855Z,20.20
2022-08-05T16:56:41.613Z,20.10
2022-08-05T16:59:14.555Z,20.10
2022-08-05T17:01:54.109Z,20.10
2022-08-05T17:04:27.229Z,20.00
2022-08-05T17:07:00.211Z,20.00
2022-08-05T17:09:29.881Z,20.00
2022-08-05T17:11:59.813Z,19.90
2022-08-05T17:14:37.177Z,19.80
2022-08-05T17:17:14.270Z,19.80
2022-08-05T17:19:46.382Z,19.70
2022-08-05T17:22:25.522Z,19.70
2022-08-05T17:24:57.822Z,19.60
2022-08-05T17:27:34.211Z,19.60
2022-08-05T17:30:12.128Z,19.70
2022-08-05T17:32:47.958Z,19.60
2022-08-05T17:35:20.777Z,19.60
2022-08-05T17:37:49.265Z,19.60
2022-08-05T17:40:22.657Z,19.50
2022-08-05T17:42:53.210Z,19.30
2022-08-05T17:45:23.022Z,19.20
2022-08-05T17:47:56.094Z,19.10
2022-08-05T17:50:28.178Z,19.00
2022-08-05T17:53:04.548Z,18.80
2022-08-05T17:55:39.572Z,18.70
2022-08-05T17:58:12.582Z,18.60
2022-08-05T18:00:45.145Z,18.50
2022-08-05T18:06:11.899Z,18.40
2022-08-05T18:08:44.836Z,18.40
2022-08-05T18:11:23.174Z,18.30
2022-08-05T18:13:51.649Z,18.20
2022-08-05T18:16:20.750Z,18.10
2022-08-05T18:18:50.862Z,18.00
2022-08-05T18:21:22.946Z,17.90
2022-08-05T18:23:55.721Z,17.80
2022-08-05T18:26:27.709Z,17.70
2022-08-05T18:28:58.145Z,17.50
2022-08-05T18:31:33.807Z,17.40
2022-08-05T18:34:05.949Z,17.30
2022-08-05T18:36:36.527Z,17.20
2022-08-05T18:39:09.693Z,17.10
2022-08-05T18:41:55.276Z,17.00
2022-08-05T18:44:34.822Z,17.00
2022-08-05T18:47:04.346Z,17.00
2022-08-05T18:49:57.859Z,17.00
2022-08-05T18:52:35.748Z,16.90
2022-08-05T18:55:10.315Z,16.90
2022-08-05T18:57:43.650Z,16.80
2022-08-05T19:00:27.090Z,16.70
2022-08-05T19:03:03.976Z,16.60
2022-08-05T19:06:11.162Z,16.50
2022-08-05T19:08:30.543Z,16.40
2022-08-05T19:11:04.472Z,16.20
2022-08-05T19:13:35.671Z,16.10
2022-08-05T19:16:05.693Z,16.00
2022-08-05T19:18:53.994Z,15.90
2022-08-05T19:21:25.942Z,15.70
2022-08-05T19:24:06.253Z,15.70
2022-08-05T19:26:43.961Z,15.60
2022-08-05T19:29:23.992Z,15.50
2022-08-05T19:31:55.934Z,15.40
2022-08-05T19:34:25.671Z,15.30
2022-08-05T19:36:53.838Z,15.20
2022-08-05T19:39:23.399Z,15.10
2022-08-05T19:42:06.977Z,15.00
2022-08-05T19:44:45.342Z,14.90
2022-08-05T19:47:15.292Z,14.90
2022-08-05T19:49:45.243Z,14.80
2022-08-05T19:52:31.702Z,14.80
2022-08-05T19:55:06.997Z,14.70
2022-08-05T19:58:14.489Z,14.70
2022-08-05T20:00:38.317Z,14.60
2022-08-05T20:03:09.120Z,14.60
2022-08-05T20:05:43.051Z,14.50
2022-08-05T20:08:11.691Z,14.50
2022-08-05T20:10:43.317Z,14.50
2022-08-05T20:13:12.175Z,14.50
2022-08-05T20:15:52.465Z,14.40
2022-08-05T20:18:33.902Z,14.40
2022-08-05T20:21:05.276Z,14.30
2022-08-05T20:23:40.551Z,14.30
2022-08-05T20:26:21.520Z,14.30
2022-08-05T20:28:54.028Z,14.20
2022-08-05T20:31:36.846Z,14.20
2022-08-05T20:34:11.667Z,14.20
2022-08-05T20:36:43.483Z,14.10
2022-08-05T20:39:13.343Z,14.00
2022-08-05T20:41:45.471Z,14.00
2022-08-05T20:44:18.674Z,14.00
2022-08-05T20:46:47.932Z,14.00
2022-08-05T20:49:23.921Z,14.00
2022-08-05T20:51:53.763Z,13.90
2022-08-05T20:54:22.287Z,13.90
2022-08-05T20:56:51.779Z,13.90
2022-08-05T20:59:26.471Z,13.90
2022-08-05T21:01:57.984Z,13.90
2022-08-05T21:04:27.302Z,13.90
2022-08-05T21:06:55.925Z,13.90
2022-08-05T21:09:24.016Z,13.90
2022-08-05T21:12:10.905Z,13.80
2022-08-05T21:14:40.040Z,13.80
2022-08-05T21:17:08.125Z,13.70
2022-08-05T21:19:46.480Z,13.70
2022-08-05T21:22:18.406Z,13.70
2022-08-05T21:24:48.970Z,13.70
2022-08-05T21:27:25.475Z,13.60
2022-08-05T21:29:56.202Z,13.60
2022-08-05T21:32:27.037Z,13.60
2022-08-05T21:35:17.332Z,13.50
2022-08-05T21:37:47.251Z,13.50
2022-08-05T21:40:16.629Z,13.50
2022-08-05T21:42:47.210Z,13.40
2022-08-05T21:45:24.633Z,13.40
2022-08-05T21:48:06.492Z,13.40
2022-08-05T21:50:36.654Z,13.40
2022-08-05T21:53:16.268Z,13.30
2022-08-05T21:56:06.069Z,13.30
2022-08-05T21:58:34.408Z,13.30
2022-08-05T22:01:05.600Z,13.30
2022-08-05T22:03:52.307Z,13.20
2022-08-05T22:06:34.821Z,13.20
2022-08-05T22:09:13.997Z,13.20
2022-08-05T22:11:47.008Z,13.20
2022-08-05T22:14:33.325Z,13.10
2022-08-05T22:17:06.981Z,13.10
2022-08-05T22:19:57.265Z,13.10
2022-08-05T22:22:28.280Z,13.00
2022-08-05T22:25:21.586Z,13.00
2022-08-05T22:28:09.385Z,12.90
2022-08-05T22:30:44.302Z,12.90
2022-08-05T22:33:57.282Z,12.80
2022-08-05T22:36:17.145Z,12.80
2022-08-05T22:38:48.118Z,12.80
2022-08-05T22:41:26.262Z,12.80
2022-08-05T22:44:05.531Z,12.70
2022-08-05T22:46:40.168Z,12.80
2022-08-05T22:49:12.486Z,12.70
2022-08-05T22:52:05.692Z,12.80
2022-08-05T22:54:36.577Z,12.80
2022-08-05T22:57:05.126Z,12.70
2022-08-05T22:59:48.448Z,12.70
2022-08-05T23:02:29.677Z,12.70
2022-08-05T23:05:02.144Z,12.70
2022-08-05T23:07:33.693Z,12.70
2022-08-05T23:10:14.575Z,12.70
2022-08-05T23:12:43.915Z,12.70
2022-08-05T23:15:12.563Z,12.60
2022-08-05T23:18:00.848Z,12.70
2022-08-05T23:20:30.260Z,12.60
2022-08-05T23:22:58.926Z,12.60
2022-08-05T23:25:50.869Z,12.60
2022-08-05T23:28:17.222Z,12.60
2022-08-05T23:30:53.117Z,12.60
2022-08-05T23:34:03.252Z,12.50
2022-08-05T23:36:13.508Z,12.60
2022-08-05T23:38:42.785Z,12.50
2022-08-05T23:41:12.077Z,12.50
2022-08-05T23:44:05.431Z,12.50
2022-08-05T23:46:29.832Z,12.40
2022-08-05T23:49:02.171Z,12.40
2022-08-05T23:52:02.351Z,12.40
2022-08-05T23:54:36.463Z,12.30
2022-08-05T23:57:08.266Z,12.30
